Time;durP1;ratioP1;P1;durP2;ratioP2;P2;SDS_P1;SDS_P2;PMS_P1;PMS_P2;Temp;Humidity;BMP_temperature;BMP_pressure;BME280_temperature;BME280_humidity;BME280_pressure;Samples;Min_cycle;Max_cycle;Signal;HPM_P1;HPM_P2
2021/12/20 00:00:48;;;;;;;;;;;6.00;99.90;;;;;;5109617;27;19962;-66
2021/12/20 00:03:14;;;;;;;;;;;6.00;99.90;;;;;;5107846;27;19972;-66
2021/12/20 00:05:40;;;;;;;;;;;6.00;99.90;;;;;;5109408;27;19972;-66
2021/12/20 00:08:05;;;;;;;;;;;6.00;99.90;;;;;;5125768;27;19919;-65
2021/12/20 00:10:31;;;;;;;;;;;6.00;99.90;;;;;;5109323;27;19968;-65
2021/12/20 00:12:56;;;;;;;;;;;6.00;99.90;;;;;;5112127;27;20014;-65
2021/12/20 00:15:22;;;;;;;;;;;6.10;99.90;;;;;;5110539;27;19937;-65
2021/12/20 00:17:48;;;;;;;;;;;6.10;99.90;;;;;;5111278;27;19915;-65
2021/12/20 00:20:13;;;;;;;;;;;6.10;99.90;;;;;;5093648;27;19919;-66
2021/12/20 00:22:39;;;;;;;;;;;6.10;99.90;;;;;;5109716;27;19979;-66
2021/12/20 00:25:06;;;;;;;;;;;6.00;99.90;;;;;;5111542;27;19976;-66
2021/12/20 00:27:31;;;;;;;;;;;6.00;99.90;;;;;;5110946;27;20434;-66
2021/12/20 00:29:57;;;;;;;;;;;6.00;99.90;;;;;;5093791;27;19915;-66
2021/12/20 00:32:22;;;;;;;;;;;6.00;99.90;;;;;;5093866;27;19926;-65
2021/12/20 00:34:48;;;;;;;;;;;6.00;99.90;;;;;;5109936;27;19919;-66
2021/12/20 00:42:43;;;;;;;;;;;6.00;99.90;;;;;;5111728;28;19934;-65
2021/12/20 00:45:09;;;;;;;;;;;6.00;99.90;;;;;;5116893;27;20361;-65
2021/12/20 00:47:35;;;;;;;;;;;5.90;99.90;;;;;;5111704;27;19923;-66
2021/12/20 00:50:01;;;;;;;;;;;5.90;99.90;;;;;;5113748;28;19919;-65
2021/12/20 00:52:26;;;;;;;;;;;5.90;99.90;;;;;;5108682;28;19915;-65
2021/12/20 00:54:52;;;;;;;;;;;5.90;99.90;;;;;;5113040;28;19931;-65
2021/12/20 00:57:17;;;;;;;;;;;5.90;99.90;;;;;;5110619;28;19995;-65
2021/12/20 00:59:43;;;;;;;;;;;5.90;99.90;;;;;;5103940;28;20362;-65
2021/12/20 01:02:09;;;;;;;;;;;5.80;99.90;;;;;;5108946;27;19938;-66
2021/12/20 01:04:35;;;;;;;;;;;5.80;99.90;;;;;;5106551;28;19919;-65
2021/12/20 01:07:00;;;;;;;;;;;5.80;99.90;;;;;;5109113;28;19966;-65
2021/12/20 01:09:25;;;;;;;;;;;5.80;99.90;;;;;;5109603;28;20330;-66
2021/12/20 01:11:53;;;;;;;;;;;5.80;99.90;;;;;;5110794;28;19915;-66
2021/12/20 01:14:23;;;;;;;;;;;5.80;99.90;;;;;;5110083;28;19944;-66
2021/12/20 01:16:49;;;;;;;;;;;5.90;99.90;;;;;;5113262;28;19919;-66
2021/12/20 01:19:15;;;;;;;;;;;5.90;99.90;;;;;;5107720;28;20306;-66
2021/12/20 01:21:40;;;;;;;;;;;5.80;99.90;;;;;;5128524;27;19916;-66
2021/12/20 01:24:06;;;;;;;;;;;5.80;99.90;;;;;;5110100;28;20289;-66
2021/12/20 01:26:31;;;;;;;;;;;5.80;99.90;;;;;;5094085;28;20293;-65
2021/12/20 01:28:57;;;;;;;;;;;5.80;99.90;;;;;;5111425;28;19920;-66
2021/12/20 01:31:22;;;;;;;;;;;5.80;99.90;;;;;;5110636;28;19975;-66
2021/12/20 01:33:48;;;;;;;;;;;5.70;99.90;;;;;;5094737;28;20338;-65
2021/12/20 01:36:13;;;;;;;;;;;5.70;99.90;;;;;;5110721;28;19922;-65
2021/12/20 01:38:39;;;;;;;;;;;5.70;99.90;;;;;;5110770;28;20349;-65
2021/12/20 01:41:05;;;;;;;;;;;5.70;99.90;;;;;;5129714;28;20305;-65
2021/12/20 01:43:30;;;;;;;;;;;5.70;99.90;;;;;;5097980;27;19926;-65
2021/12/20 01:45:55;;;;;;;;;;;5.70;99.90;;;;;;5109245;27;19926;-65
2021/12/20 01:48:22;;;;;;;;;;;5.70;99.90;;;;;;5098297;27;19915;-65
2021/12/20 01:53:21;;;;;;;;;;;5.70;99.90;;;;;;5114902;27;19915;-65
2021/12/20 01:55:48;;;;;;;;;;;5.70;99.90;;;;;;5130079;27;19941;-66
2021/12/20 01:58:13;;;;;;;;;;;5.70;99.90;;;;;;5109877;27;20371;-65
2021/12/20 02:03:23;;;;;;;;;;;5.70;99.90;;;;;;5113666;27;19927;-65
2021/12/20 02:05:53;;;;;;;;;;;5.70;99.90;;;;;;5109783;27;19920;-66
2021/12/20 02:08:24;;;;;;;;;;;5.70;99.90;;;;;;5114070;27;19923;-65
2021/12/20 02:10:53;;;;;;;;;;;5.70;99.90;;;;;;5114167;27;20416;-65
2021/12/20 02:13:19;;;;;;;;;;;5.80;99.90;;;;;;5112275;27;19954;-66
2021/12/20 02:15:44;;;;;;;;;;;5.70;99.90;;;;;;5113525;27;19991;-66
2021/12/20 02:18:10;;;;;;;;;;;5.70;99.90;;;;;;5111973;27;20052;-65
2021/12/20 02:20:36;;;;;;;;;;;5.80;99.90;;;;;;5112578;27;19919;-65
2021/12/20 02:23:02;;;;;;;;;;;5.80;99.90;;;;;;5111051;27;20770;-66
2021/12/20 02:25:28;;;;;;;;;;;5.80;99.90;;;;;;5092821;27;20391;-66
2021/12/20 02:27:54;;;;;;;;;;;5.80;99.90;;;;;;5115412;27;19916;-66
2021/12/20 02:38:45;;;;;;;;;;;5.80;99.90;;;;;;5113028;27;20537;-65
2021/12/20 02:41:13;;;;;;;;;;;5.70;99.90;;;;;;5112797;27;20002;-65
2021/12/20 02:43:43;;;;;;;;;;;5.70;99.90;;;;;;5113795;27;19938;-65
2021/12/20 02:46:50;;;;;;;;;;;5.70;99.90;;;;;;5112242;27;19922;-66
2021/12/20 02:49:10;;;;;;;;;;;5.70;99.90;;;;;;5108891;27;19923;-66
2021/12/20 02:51:36;;;;;;;;;;;5.60;99.90;;;;;;5111226;27;20327;-66
2021/12/20 02:54:03;;;;;;;;;;;5.60;99.90;;;;;;5112727;27;19972;-66
2021/12/20 02:56:29;;;;;;;;;;;5.60;99.90;;;;;;5111340;27;19968;-66
2021/12/20 02:58:54;;;;;;;;;;;5.60;99.90;;;;;;5113621;27;19919;-66
2021/12/20 03:01:21;;;;;;;;;;;5.60;99.90;;;;;;5108216;27;20244;-66
2021/12/20 03:03:47;;;;;;;;;;;5.60;99.90;;;;;;5113532;27;19923;-66
2021/12/20 03:06:15;;;;;;;;;;;5.60;99.90;;;;;;5113505;27;19916;-65
2021/12/20 03:08:44;;;;;;;;;;;5.60;99.90;;;;;;5112884;27;19960;-65
2021/12/20 03:11:09;;;;;;;;;;;5.60;99.90;;;;;;5111672;27;20294;-66
2021/12/20 03:13:35;;;;;;;;;;;5.60;99.90;;;;;;5112269;27;19922;-66
2021/12/20 03:16:00;;;;;;;;;;;5.60;99.90;;;;;;5113654;27;19924;-65
2021/12/20 03:18:26;;;;;;;;;;;5.60;99.90;;;;;;5111459;27;19915;-65
2021/12/20 03:20:51;;;;;;;;;;;5.60;99.90;;;;;;5112594;27;19968;-65
2021/12/20 03:23:17;;;;;;;;;;;5.60;99.90;;;;;;5113248;27;19922;-65
2021/12/20 03:25:42;;;;;;;;;;;5.60;99.90;;;;;;5114296;27;19919;-66
2021/12/20 03:28:08;;;;;;;;;;;5.60;99.90;;;;;;5111446;27;20347;-66
2021/12/20 03:30:33;;;;;;;;;;;5.60;99.90;;;;;;5092507;27;19924;-65
2021/12/20 03:32:59;;;;;;;;;;;5.60;99.90;;;;;;5109722;27;20453;-65
2021/12/20 03:35:24;;;;;;;;;;;5.60;99.90;;;;;;5102273;27;19967;-66
2021/12/20 03:37:49;;;;;;;;;;;5.60;99.90;;;;;;5112990;27;19922;-66
2021/12/20 03:40:15;;;;;;;;;;;5.60;99.90;;;;;;5111489;27;19920;-65
2021/12/20 03:42:43;;;;;;;;;;;5.50;99.90;;;;;;5109470;27;20330;-66
2021/12/20 03:45:09;;;;;;;;;;;5.50;99.90;;;;;;5114918;27;19915;-65
2021/12/20 03:47:34;;;;;;;;;;;5.50;99.90;;;;;;5112996;27;19926;-66
2021/12/20 03:50:00;;;;;;;;;;;5.50;99.90;;;;;;5094540;27;19973;-65
2021/12/20 03:52:25;;;;;;;;;;;5.50;99.90;;;;;;5096055;27;19916;-66
2021/12/20 03:54:51;;;;;;;;;;;5.50;99.90;;;;;;5110919;27;20416;-66
2021/12/20 03:57:16;;;;;;;;;;;5.50;99.90;;;;;;5107435;27;20265;-65
2021/12/20 03:59:42;;;;;;;;;;;5.50;99.90;;;;;;5113841;27;19915;-65
2021/12/20 04:02:08;;;;;;;;;;;5.50;99.90;;;;;;5111082;27;19915;-65
2021/12/20 04:04:33;;;;;;;;;;;5.50;99.90;;;;;;5090939;27;20296;-65
2021/12/20 04:06:58;;;;;;;;;;;5.40;99.90;;;;;;5088995;27;20001;-65
2021/12/20 04:09:24;;;;;;;;;;;5.40;99.90;;;;;;5110373;27;19921;-65
2021/12/20 04:11:49;;;;;;;;;;;5.40;99.90;;;;;;5111924;27;20006;-64
2021/12/20 04:14:15;;;;;;;;;;;5.40;99.90;;;;;;5111388;27;19934;-65
2021/12/20 04:16:40;;;;;;;;;;;5.30;99.90;;;;;;5111357;27;19970;-65
2021/12/20 04:19:06;;;;;;;;;;;5.30;99.90;;;;;;5104639;27;19915;-65
2021/12/20 04:21:31;;;;;;;;;;;5.40;99.90;;;;;;5110314;27;19968;-65
2021/12/20 04:23:57;;;;;;;;;;;5.40;99.90;;;;;;5111523;27;19919;-65
2021/12/20 04:26:22;;;;;;;;;;;5.40;99.90;;;;;;5094281;27;19919;-65
2021/12/20 04:28:48;;;;;;;;;;;5.40;99.90;;;;;;5111128;27;19915;-65
2021/12/20 04:31:13;;;;;;;;;;;5.30;99.90;;;;;;5111646;27;20010;-66
2021/12/20 04:33:39;;;;;;;;;;;5.30;99.90;;;;;;5109760;27;19923;-66
2021/12/20 04:36:05;;;;;;;;;;;5.30;99.90;;;;;;5110821;27;19923;-65
2021/12/20 04:38:31;;;;;;;;;;;5.20;99.90;;;;;;5111285;27;20006;-65
2021/12/20 04:40:57;;;;;;;;;;;5.30;99.90;;;;;;5108843;27;19923;-66
2021/12/20 04:43:22;;;;;;;;;;;5.30;99.90;;;;;;5111213;27;20342;-66
2021/12/20 04:45:48;;;;;;;;;;;5.30;99.90;;;;;;5111231;27;19912;-66
2021/12/20 04:48:13;;;;;;;;;;;5.30;99.90;;;;;;5108614;27;19915;-66
2021/12/20 04:50:39;;;;;;;;;;;5.20;99.90;;;;;;5095740;27;19958;-66
2021/12/20 04:53:05;;;;;;;;;;;5.20;99.90;;;;;;5110323;27;19923;-66
2021/12/20 04:55:31;;;;;;;;;;;5.20;99.90;;;;;;5102862;27;19927;-66
2021/12/20 04:57:57;;;;;;;;;;;5.20;99.90;;;;;;5103098;28;19916;-66
2021/12/20 05:00:25;;;;;;;;;;;5.20;99.90;;;;;;5110548;28;20397;-66
2021/12/20 05:02:50;;;;;;;;;;;5.20;99.90;;;;;;5108623;28;19919;-65
2021/12/20 05:05:16;;;;;;;;;;;5.10;99.90;;;;;;5112655;28;20014;-66
2021/12/20 05:07:44;;;;;;;;;;;5.10;99.90;;;;;;5129443;27;19916;-66
2021/12/20 05:10:13;;;;;;;;;;;5.10;99.90;;;;;;5106034;28;19953;-66
2021/12/20 05:12:39;;;;;;;;;;;5.10;99.90;;;;;;5110147;28;20345;-67
2021/12/20 05:15:05;;;;;;;;;;;5.10;99.90;;;;;;5109906;28;19975;-66
2021/12/20 05:17:30;;;;;;;;;;;5.10;99.90;;;;;;5111470;28;19919;-66
2021/12/20 05:19:56;;;;;;;;;;;5.00;99.90;;;;;;5085363;27;20286;-66
2021/12/20 05:22:22;;;;;;;;;;;5.10;99.90;;;;;;5103162;27;20274;-66
2021/12/20 05:24:47;;;;;;;;;;;5.10;99.90;;;;;;5112717;27;19954;-67
2021/12/20 05:27:12;;;;;;;;;;;5.10;99.90;;;;;;5097134;27;19923;-66
2021/12/20 05:29:38;;;;;;;;;;;5.10;99.90;;;;;;5114514;27;20358;-66
2021/12/20 05:32:05;;;;;;;;;;;5.10;99.90;;;;;;5113123;27;19919;-66
2021/12/20 05:34:31;;;;;;;;;;;5.10;99.90;;;;;;5111762;27;19937;-66
2021/12/20 05:36:57;;;;;;;;;;;5.10;99.90;;;;;;5114974;27;19920;-66
2021/12/20 05:39:23;;;;;;;;;;;5.10;99.90;;;;;;5113191;27;19925;-66
2021/12/20 05:41:48;;;;;;;;;;;5.20;99.90;;;;;;5113076;27;20392;-66
2021/12/20 05:44:13;;;;;;;;;;;5.20;99.90;;;;;;5111304;27;20346;-66
2021/12/20 05:46:39;;;;;;;;;;;5.20;99.90;;;;;;5112710;27;19959;-66
2021/12/20 05:49:04;;;;;;;;;;;5.30;99.90;;;;;;5111631;27;20325;-66
2021/12/20 05:51:30;;;;;;;;;;;5.20;99.90;;;;;;5112358;27;19916;-66
2021/12/20 05:53:55;;;;;;;;;;;5.20;99.90;;;;;;5112347;27;19927;-66
2021/12/20 05:56:21;;;;;;;;;;;5.20;99.90;;;;;;5113170;27;19915;-66
2021/12/20 05:58:46;;;;;;;;;;;5.20;99.90;;;;;;5123246;27;19915;-66
2021/12/20 06:01:12;;;;;;;;;;;5.20;99.90;;;;;;5109967;27;19915;-66
2021/12/20 06:03:37;;;;;;;;;;;5.20;99.90;;;;;;5113117;27;19921;-66
2021/12/20 06:06:03;;;;;;;;;;;5.20;99.90;;;;;;5108639;27;19915;-66
2021/12/20 06:08:28;;;;;;;;;;;5.20;99.90;;;;;;5115564;27;20317;-66
2021/12/20 06:10:54;;;;;;;;;;;5.20;99.90;;;;;;5112572;27;21157;-66
2021/12/20 06:13:19;;;;;;;;;;;5.20;99.90;;;;;;5114359;27;19915;-66
2021/12/20 06:15:45;;;;;;;;;;;5.20;99.90;;;;;;5113804;27;19919;-66
2021/12/20 06:18:10;;;;;;;;;;;5.20;99.90;;;;;;5115748;27;20266;-66
2021/12/20 06:20:36;;;;;;;;;;;5.20;99.90;;;;;;5112829;27;20315;-66
2021/12/20 06:23:01;;;;;;;;;;;5.20;99.90;;;;;;5114880;27;19923;-66
2021/12/20 06:25:27;;;;;;;;;;;5.20;99.90;;;;;;5113616;27;19919;-65
2021/12/20 06:27:52;;;;;;;;;;;5.20;99.90;;;;;;5113237;27;19919;-66
2021/12/20 06:30:18;;;;;;;;;;;5.20;99.90;;;;;;5113025;27;20362;-66
2021/12/20 06:32:45;;;;;;;;;;;5.10;99.90;;;;;;5111619;27;19922;-66
2021/12/20 06:35:13;;;;;;;;;;;5.10;99.90;;;;;;5111774;27;19966;-66
2021/12/20 06:37:39;;;;;;;;;;;5.00;99.90;;;;;;5113534;27;19915;-66
2021/12/20 06:40:04;;;;;;;;;;;5.00;99.90;;;;;;5113533;27;19915;-66
2021/12/20 06:42:30;;;;;;;;;;;4.90;99.90;;;;;;5110844;27;19915;-66
2021/12/20 06:44:56;;;;;;;;;;;4.80;99.90;;;;;;5112655;27;19937;-66
2021/12/20 06:47:21;;;;;;;;;;;4.80;99.90;;;;;;5108165;27;19973;-66
2021/12/20 06:49:47;;;;;;;;;;;4.70;99.90;;;;;;5103670;27;21789;-66
2021/12/20 06:52:13;;;;;;;;;;;4.60;99.90;;;;;;5101720;27;20014;-66
2021/12/20 06:54:38;;;;;;;;;;;4.60;99.90;;;;;;5096432;27;19927;-66
2021/12/20 06:57:04;;;;;;;;;;;4.50;99.90;;;;;;5110498;27;20402;-66
2021/12/20 06:59:29;;;;;;;;;;;4.50;99.90;;;;;;5111947;27;19915;-66
2021/12/20 07:01:54;;;;;;;;;;;4.40;99.90;;;;;;5112714;27;20006;-66
2021/12/20 07:04:20;;;;;;;;;;;4.30;99.90;;;;;;5112982;27;21751;-66
2021/12/20 07:06:45;;;;;;;;;;;4.20;99.90;;;;;;5113309;27;19970;-66
2021/12/20 07:09:11;;;;;;;;;;;4.20;99.90;;;;;;5112293;27;19923;-66
2021/12/20 07:11:36;;;;;;;;;;;4.10;99.90;;;;;;5113983;27;20287;-66
2021/12/20 07:14:02;;;;;;;;;;;4.10;99.90;;;;;;5109589;27;19965;-66
2021/12/20 07:16:32;;;;;;;;;;;4.00;99.90;;;;;;5114131;27;19938;-66
2021/12/20 07:18:58;;;;;;;;;;;3.90;99.90;;;;;;5111685;27;19915;-66
2021/12/20 07:21:23;;;;;;;;;;;3.90;99.90;;;;;;5111267;27;19923;-66
2021/12/20 07:23:49;;;;;;;;;;;3.90;99.90;;;;;;5131450;27;19916;-66
2021/12/20 07:26:14;;;;;;;;;;;3.80;99.90;;;;;;5113107;27;19916;-66
2021/12/20 07:28:43;;;;;;;;;;;3.70;99.90;;;;;;5111432;27;19960;-66
2021/12/20 07:31:09;;;;;;;;;;;3.70;99.90;;;;;;5112942;27;19916;-66
2021/12/20 07:33:35;;;;;;;;;;;3.70;99.90;;;;;;5114284;27;20032;-66
2021/12/20 07:36:00;;;;;;;;;;;3.70;99.90;;;;;;5112525;27;20002;-66
2021/12/20 07:38:26;;;;;;;;;;;3.60;99.90;;;;;;5115139;27;19915;-66
2021/12/20 07:40:51;;;;;;;;;;;3.60;99.90;;;;;;5091122;27;19959;-66
2021/12/20 07:43:17;;;;;;;;;;;3.50;99.90;;;;;;5109292;27;19926;-66
2021/12/20 07:45:44;;;;;;;;;;;3.40;99.90;;;;;;5108427;27;19915;-66
2021/12/20 07:48:09;;;;;;;;;;;3.40;99.90;;;;;;5096783;27;19919;-66
2021/12/20 07:50:35;;;;;;;;;;;3.40;99.90;;;;;;5113165;27;19916;-66
2021/12/20 07:53:00;;;;;;;;;;;3.30;99.90;;;;;;5112356;27;19915;-66
2021/12/20 07:55:26;;;;;;;;;;;3.20;99.90;;;;;;5111142;27;19919;-67
2021/12/20 07:57:52;;;;;;;;;;;3.10;99.90;;;;;;5111131;27;19915;-66
2021/12/20 08:00:18;;;;;;;;;;;3.00;99.90;;;;;;5110665;27;20277;-66
2021/12/20 08:02:43;;;;;;;;;;;3.00;99.90;;;;;;5112175;27;19919;-66
2021/12/20 08:05:09;;;;;;;;;;;3.00;99.90;;;;;;5104443;27;19969;-66
2021/12/20 08:07:35;;;;;;;;;;;2.90;99.90;;;;;;5108989;27;20037;-66
2021/12/20 08:10:00;;;;;;;;;;;2.90;99.90;;;;;;5112440;27;20035;-66
2021/12/20 08:12:26;;;;;;;;;;;2.90;99.90;;;;;;5112665;27;19916;-66
2021/12/20 08:14:51;;;;;;;;;;;2.90;99.90;;;;;;5112084;27;19923;-66
2021/12/20 08:17:17;;;;;;;;;;;2.90;99.90;;;;;;5111402;27;19951;-66
2021/12/20 08:19:42;;;;;;;;;;;2.90;99.90;;;;;;5112565;27;19972;-66
2021/12/20 08:22:08;;;;;;;;;;;2.80;99.90;;;;;;5111778;27;19919;-66
2021/12/20 08:24:33;;;;;;;;;;;2.80;99.90;;;;;;5112487;27;19951;-66
2021/12/20 08:26:59;;;;;;;;;;;2.80;99.90;;;;;;5112024;27;19971;-66
2021/12/20 08:29:24;;;;;;;;;;;2.70;99.90;;;;;;5110574;27;19973;-66
2021/12/20 08:31:50;;;;;;;;;;;2.70;99.90;;;;;;5094033;27;19935;-66
2021/12/20 08:34:16;;;;;;;;;;;2.70;99.90;;;;;;5110437;27;19927;-66
2021/12/20 08:36:41;;;;;;;;;;;2.60;99.90;;;;;;5110441;27;19922;-66
2021/12/20 08:39:07;;;;;;;;;;;2.60;99.90;;;;;;5111579;27;20018;-66
2021/12/20 08:41:32;;;;;;;;;;;2.50;99.90;;;;;;5112071;27;19919;-65
2021/12/20 08:43:58;;;;;;;;;;;2.50;99.90;;;;;;5111351;27;19915;-66
2021/12/20 08:46:23;;;;;;;;;;;2.50;99.90;;;;;;5101177;28;20358;-66
2021/12/20 08:48:50;;;;;;;;;;;2.60;99.90;;;;;;5094951;27;19920;-66
2021/12/20 08:51:16;;;;;;;;;;;2.60;99.90;;;;;;5112467;27;19927;-66
2021/12/20 08:53:41;;;;;;;;;;;2.60;99.90;;;;;;5110378;27;19964;-66
2021/12/20 08:56:07;;;;;;;;;;;2.70;99.90;;;;;;5111367;28;20001;-67
2021/12/20 08:58:33;;;;;;;;;;;2.60;99.90;;;;;;5113712;28;19919;-65
2021/12/20 09:00:58;;;;;;;;;;;2.60;99.90;;;;;;5104571;28;19915;-65
2021/12/20 09:03:25;;;;;;;;;;;2.70;99.90;;;;;;5113133;28;19919;-66
2021/12/20 09:05:51;;;;;;;;;;;2.70;99.90;;;;;;5111113;28;20483;-66
2021/12/20 09:08:18;;;;;;;;;;;2.70;99.90;;;;;;5107286;28;19915;-65
2021/12/20 09:10:44;;;;;;;;;;;2.60;99.90;;;;;;5109586;28;19998;-66
2021/12/20 09:13:09;;;;;;;;;;;2.60;99.90;;;;;;5100051;28;20006;-66
2021/12/20 09:15:35;;;;;;;;;;;2.60;99.90;;;;;;5091778;28;19931;-66
2021/12/20 09:18:01;;;;;;;;;;;2.70;99.90;;;;;;5111794;28;19915;-66
2021/12/20 09:20:28;;;;;;;;;;;2.70;99.90;;;;;;5108856;28;20475;-66
2021/12/20 09:22:56;;;;;;;;;;;2.70;99.90;;;;;;5110566;28;21243;-66
2021/12/20 09:25:23;;;;;;;;;;;2.80;99.90;;;;;;5111623;28;20371;-66
2021/12/20 09:27:50;;;;;;;;;;;2.80;99.90;;;;;;5112169;28;19915;-66
2021/12/20 09:30:16;;;;;;;;;;;2.80;99.90;;;;;;5112570;28;20051;-66
2021/12/20 09:32:41;;;;;;;;;;;2.90;99.90;;;;;;5109028;27;19998;-66
2021/12/20 09:35:07;;;;;;;;;;;2.90;99.90;;;;;;5110648;28;20366;-66
2021/12/20 09:37:33;;;;;;;;;;;3.00;99.90;;;;;;5105187;28;19926;-66
2021/12/20 09:40:00;;;;;;;;;;;3.00;99.90;;;;;;5111782;28;19923;-66
2021/12/20 09:42:26;;;;;;;;;;;3.10;99.90;;;;;;5110859;28;19919;-66
2021/12/20 09:44:52;;;;;;;;;;;3.10;99.90;;;;;;5112160;28;19924;-66
2021/12/20 09:47:17;;;;;;;;;;;3.20;99.90;;;;;;5110488;28;19922;-66
2021/12/20 09:49:43;;;;;;;;;;;3.30;99.90;;;;;;5111505;28;20358;-66
2021/12/20 09:52:09;;;;;;;;;;;3.30;99.90;;;;;;5110242;28;19968;-66
2021/12/20 09:54:34;;;;;;;;;;;3.40;99.90;;;;;;5111671;28;19927;-66
2021/12/20 09:57:02;;;;;;;;;;;3.40;99.90;;;;;;5109275;27;20354;-66
2021/12/20 09:59:28;;;;;;;;;;;3.50;99.90;;;;;;5106832;28;20381;-66
2021/12/20 10:01:54;;;;;;;;;;;3.60;99.90;;;;;;5094940;28;19977;-66
2021/12/20 10:04:22;;;;;;;;;;;3.60;99.90;;;;;;5088788;28;20036;-66
2021/12/20 10:06:55;;;;;;;;;;;3.70;99.90;;;;;;5091945;27;19915;-66
2021/12/20 10:09:26;;;;;;;;;;;3.70;99.90;;;;;;5114176;27;19945;-66
2021/12/20 10:12:24;;;;;;;;;;;3.80;99.90;;;;;;5115309;27;19958;-66
2021/12/20 10:14:50;;;;;;;;;;;3.80;99.90;;;;;;5097764;27;20239;-66
2021/12/20 10:17:16;;;;;;;;;;;3.90;99.90;;;;;;5133852;27;20010;-66
2021/12/20 10:19:41;;;;;;;;;;;3.90;99.90;;;;;;5113710;27;20043;-66
2021/12/20 10:22:22;;;;;;;;;;;4.00;99.90;;;;;;5114490;27;19916;-66
2021/12/20 10:24:47;;;;;;;;;;;4.00;99.90;;;;;;5114059;27;19916;-67
2021/12/20 10:27:33;;;;;;;;;;;4.10;99.90;;;;;;5113858;27;20270;-66
2021/12/20 10:30:00;;;;;;;;;;;4.10;99.90;;;;;;5101434;27;20348;-66
2021/12/20 10:32:38;;;;;;;;;;;4.10;99.90;;;;;;5113917;27;20369;-66
2021/12/20 10:35:24;;;;;;;;;;;4.30;99.90;;;;;;5103058;27;19996;-66
2021/12/20 10:37:49;;;;;;;;;;;4.30;99.90;;;;;;5108787;27;20017;-66
2021/12/20 10:40:15;;;;;;;;;;;4.40;99.90;;;;;;5115038;27;20011;-66
2021/12/20 10:42:40;;;;;;;;;;;4.40;99.90;;;;;;5111789;27;19919;-66
2021/12/20 10:45:11;;;;;;;;;;;4.50;99.90;;;;;;5114070;27;19915;-66
2021/12/20 10:47:37;;;;;;;;;;;4.50;99.90;;;;;;5113162;27;19923;-66
2021/12/20 10:50:21;;;;;;;;;;;4.50;99.90;;;;;;5114725;27;20293;-66
2021/12/20 10:52:46;;;;;;;;;;;4.60;99.90;;;;;;5110807;27;19955;-66
2021/12/20 10:55:12;;;;;;;;;;;4.60;99.90;;;;;;5114493;27;19989;-66
2021/12/20 10:57:37;;;;;;;;;;;4.60;99.90;;;;;;5094732;27;19919;-66
2021/12/20 11:00:14;;;;;;;;;;;4.70;99.90;;;;;;5112990;27;19919;-66
2021/12/20 11:05:44;;;;;;;;;;;4.80;99.90;;;;;;5114893;27;19969;-66
2021/12/20 11:11:08;;;;;;;;;;;4.80;99.90;;;;;;5105122;27;19923;-66
2021/12/20 11:13:37;;;;;;;;;;;4.90;99.90;;;;;;5107329;27;19915;-66
2021/12/20 11:16:22;;;;;;;;;;;4.90;99.90;;;;;;5112607;27;19919;-66
2021/12/20 11:18:47;;;;;;;;;;;4.90;99.90;;;;;;5109541;27;19919;-66
2021/12/20 11:21:14;;;;;;;;;;;5.00;99.90;;;;;;5113910;27;19945;-66
2021/12/20 11:23:39;;;;;;;;;;;5.00;99.90;;;;;;5111422;27;19923;-67
2021/12/20 11:26:05;;;;;;;;;;;5.00;99.90;;;;;;5112643;27;20005;-66
2021/12/20 11:28:30;;;;;;;;;;;5.00;99.90;;;;;;5114093;27;19963;-66
2021/12/20 11:30:57;;;;;;;;;;;5.10;99.90;;;;;;5103940;27;19935;-66
2021/12/20 11:33:22;;;;;;;;;;;5.10;99.90;;;;;;5110066;27;20368;-67
2021/12/20 11:35:48;;;;;;;;;;;5.10;99.90;;;;;;5112967;27;19931;-66
2021/12/20 11:38:13;;;;;;;;;;;5.10;99.90;;;;;;5114228;27;19923;-66
2021/12/20 11:40:39;;;;;;;;;;;5.20;99.90;;;;;;5113256;27;19925;-66
2021/12/20 11:43:04;;;;;;;;;;;5.20;99.90;;;;;;5112320;27;19919;-66
2021/12/20 11:45:31;;;;;;;;;;;5.20;99.90;;;;;;5113554;27;19919;-66
2021/12/20 11:47:56;;;;;;;;;;;5.30;99.90;;;;;;5112746;27;20239;-66
2021/12/20 11:50:22;;;;;;;;;;;5.30;99.90;;;;;;5114472;27;20380;-66
2021/12/20 11:52:49;;;;;;;;;;;5.30;99.90;;;;;;5112471;27;19915;-66
2021/12/20 11:55:23;;;;;;;;;;;5.40;99.90;;;;;;5111295;27;19920;-66
2021/12/20 11:57:50;;;;;;;;;;;5.40;99.90;;;;;;5113133;27;19964;-66
2021/12/20 12:00:27;;;;;;;;;;;5.40;99.90;;;;;;5094965;27;20010;-66
2021/12/20 12:02:54;;;;;;;;;;;5.40;99.90;;;;;;5112232;27;20010;-66
2021/12/20 12:05:31;;;;;;;;;;;5.40;99.90;;;;;;5102218;27;19998;-66
2021/12/20 12:08:20;;;;;;;;;;;5.40;99.90;;;;;;5108750;27;19915;-66
2021/12/20 12:10:45;;;;;;;;;;;5.40;99.90;;;;;;5111205;27;19919;-66
2021/12/20 12:13:15;;;;;;;;;;;5.40;99.90;;;;;;5095638;27;20259;-66
2021/12/20 12:16:16;;;;;;;;;;;5.40;99.90;;;;;;5111774;27;19962;-66
2021/12/20 12:18:49;;;;;;;;;;;5.50;99.90;;;;;;5096892;27;19926;-66
2021/12/20 12:21:44;;;;;;;;;;;5.50;99.90;;;;;;5092990;28;19919;-66
2021/12/20 12:24:10;;;;;;;;;;;5.50;99.90;;;;;;5087814;27;19923;-66
2021/12/20 12:26:36;;;;;;;;;;;5.50;99.90;;;;;;5113052;27;19980;-66
2021/12/20 12:29:03;;;;;;;;;;;5.50;99.90;;;;;;5109672;27;19975;-66
2021/12/20 12:31:48;;;;;;;;;;;5.50;99.90;;;;;;5113652;27;19916;-66
2021/12/20 12:34:13;;;;;;;;;;;5.50;99.90;;;;;;5104611;27;19923;-66
2021/12/20 12:36:41;;;;;;;;;;;5.50;99.90;;;;;;5113066;27;19919;-66
2021/12/20 12:39:09;;;;;;;;;;;5.50;99.90;;;;;;5112100;27;20022;-66
2021/12/20 12:41:46;;;;;;;;;;;5.50;99.90;;;;;;5111945;27;19922;-66
2021/12/20 12:44:17;;;;;;;;;;;5.50;99.90;;;;;;5105139;28;20273;-66
2021/12/20 12:46:45;;;;;;;;;;;5.50;99.90;;;;;;5106439;28;20282;-66
2021/12/20 12:49:23;;;;;;;;;;;5.50;99.90;;;;;;5100891;27;19915;-66
2021/12/20 12:51:50;;;;;;;;;;;5.50;99.90;;;;;;5113154;28;20146;-66
2021/12/20 12:54:30;;;;;;;;;;;5.50;99.90;;;;;;5113361;28;19923;-66
2021/12/20 12:57:16;;;;;;;;;;;5.50;99.90;;;;;;5111405;28;19915;-66
2021/12/20 12:59:47;;;;;;;;;;;5.50;99.90;;;;;;5106110;28;19923;-66
2021/12/20 13:02:15;;;;;;;;;;;5.50;99.90;;;;;;5112986;28;20369;-66
2021/12/20 13:04:44;;;;;;;;;;;5.50;99.90;;;;;;5100881;28;19927;-66
2021/12/20 13:07:10;;;;;;;;;;;5.50;99.90;;;;;;5112281;28;19919;-67
2021/12/20 13:09:42;;;;;;;;;;;5.50;99.90;;;;;;5102915;28;20378;-66
2021/12/20 13:12:11;;;;;;;;;;;5.50;99.90;;;;;;5097417;28;19933;-66
2021/12/20 13:14:49;;;;;;;;;;;5.40;99.90;;;;;;5105800;28;20011;-66
2021/12/20 13:17:27;;;;;;;;;;;5.50;99.90;;;;;;5093864;28;19930;-66
2021/12/20 13:20:06;;;;;;;;;;;5.40;99.90;;;;;;5110844;28;19925;-66
2021/12/20 13:22:32;;;;;;;;;;;5.40;99.90;;;;;;5112736;28;19919;-66
2021/12/20 13:24:57;;;;;;;;;;;5.50;99.90;;;;;;5110844;28;19960;-66
2021/12/20 13:27:31;;;;;;;;;;;5.50;99.90;;;;;;5109678;27;19934;-66
2021/12/20 13:29:57;;;;;;;;;;;5.50;99.90;;;;;;5104076;28;19915;-66
2021/12/20 13:32:22;;;;;;;;;;;5.40;99.90;;;;;;5112967;28;19926;-66
2021/12/20 13:34:48;;;;;;;;;;;5.40;99.90;;;;;;5102691;28;19959;-66
2021/12/20 13:37:13;;;;;;;;;;;5.40;99.90;;;;;;5100685;27;19915;-66
2021/12/20 13:39:51;;;;;;;;;;;5.40;99.90;;;;;;5099959;28;19926;-66
2021/12/20 13:42:16;;;;;;;;;;;5.40;99.90;;;;;;5091801;27;19929;-66
2021/12/20 13:44:42;;;;;;;;;;;5.40;99.90;;;;;;5116592;27;19923;-66
2021/12/20 13:47:16;;;;;;;;;;;5.30;99.90;;;;;;5115030;27;19922;-66
2021/12/20 13:49:42;;;;;;;;;;;5.30;99.90;;;;;;5089605;27;19923;-66
2021/12/20 13:52:10;;;;;;;;;;;5.30;99.90;;;;;;5088374;28;19916;-66
2021/12/20 13:54:40;;;;;;;;;;;5.30;99.90;;;;;;5099262;27;20381;-66
2021/12/20 13:57:24;;;;;;;;;;;5.20;99.90;;;;;;5105550;27;20029;-66
2021/12/20 13:59:54;;;;;;;;;;;5.20;99.90;;;;;;5110024;27;19930;-66
2021/12/20 14:02:19;;;;;;;;;;;5.20;99.90;;;;;;5116241;27;20019;-66
2021/12/20 14:04:46;;;;;;;;;;;5.10;99.90;;;;;;5113743;27;20377;-66
2021/12/20 14:07:26;;;;;;;;;;;5.10;99.90;;;;;;5115775;27;19915;-66
2021/12/20 14:09:59;;;;;;;;;;;5.10;99.90;;;;;;5115438;27;19915;-66
2021/12/20 14:12:31;;;;;;;;;;;5.10;99.90;;;;;;5116000;27;20275;-66
2021/12/20 14:14:59;;;;;;;;;;;5.10;99.90;;;;;;5116221;27;20014;-66
2021/12/20 14:17:25;;;;;;;;;;;5.00;99.90;;;;;;5104724;28;20426;-66
2021/12/20 14:20:00;;;;;;;;;;;5.00;99.90;;;;;;5112686;27;19919;-66
2021/12/20 14:22:26;;;;;;;;;;;4.90;99.90;;;;;;5095316;27;19919;-66
2021/12/20 14:25:03;;;;;;;;;;;4.90;99.90;;;;;;5115328;27;20267;-66
2021/12/20 14:27:28;;;;;;;;;;;4.80;99.90;;;;;;5115264;27;19924;-66
2021/12/20 14:29:54;;;;;;;;;;;4.80;99.90;;;;;;5115041;27;20446;-66
2021/12/20 14:32:42;;;;;;;;;;;4.70;99.90;;;;;;5106593;27;19925;-66
2021/12/20 14:35:25;;;;;;;;;;;4.70;99.90;;;;;;5088939;27;19919;-66
2021/12/20 14:37:51;;;;;;;;;;;4.60;99.90;;;;;;5106179;28;20343;-66
2021/12/20 14:40:36;;;;;;;;;;;4.60;99.90;;;;;;5107894;27;19915;-66
2021/12/20 14:43:02;;;;;;;;;;;4.50;99.90;;;;;;5131931;27;19919;-66
2021/12/20 14:45:28;;;;;;;;;;;4.50;99.90;;;;;;5120905;27;20404;-66
2021/12/20 14:48:13;;;;;;;;;;;4.40;99.90;;;;;;5111224;27;19919;-66
2021/12/20 14:50:43;;;;;;;;;;;4.40;99.90;;;;;;5112203;27;19968;-66
2021/12/20 14:53:38;;;;;;;;;;;4.30;99.90;;;;;;5101458;27;19915;-66
2021/12/20 14:56:07;;;;;;;;;;;4.20;99.90;;;;;;5094477;27;19923;-66
2021/12/20 14:58:33;;;;;;;;;;;4.20;99.90;;;;;;5126027;27;19994;-66